sensor_id;sensor_type;location;lat;lon;timestamp;P1;durP1;ratioP1;P2;durP2;ratioP2
56141;SDS011;42018;48.588;10.836;2022-08-18T00:01:12;4.80;;;3.35;;
56141;SDS011;42018;48.588;10.836;2022-08-18T00:03:59;5.00;;;3.40;;
56141;SDS011;42018;48.588;10.836;2022-08-18T00:06:45;4.78;;;3.30;;
56141;SDS011;42018;48.588;10.836;2022-08-18T00:09:32;5.40;;;3.30;;
56141;SDS011;42018;48.588;10.836;2022-08-18T00:12:22;6.28;;;3.50;;
56141;SDS011;42018;48.588;10.836;2022-08-18T00:15:11;4.90;;;3.70;;
56141;SDS011;42018;48.588;10.836;2022-08-18T00:17:58;4.95;;;3.70;;
56141;SDS011;42018;48.588;10.836;2022-08-18T00:20:44;4.90;;;3.40;;
56141;SDS011;42018;48.588;10.836;2022-08-18T00:23:29;4.53;;;3.42;;
56141;SDS011;42018;48.588;10.836;2022-08-18T00:26:16;5.05;;;3.50;;
56141;SDS011;42018;48.588;10.836;2022-08-18T00:29:02;6.40;;;4.10;;
56141;SDS011;42018;48.588;10.836;2022-08-18T00:31:48;4.95;;;3.47;;
56141;SDS011;42018;48.588;10.836;2022-08-18T00:34:33;4.82;;;3.80;;
56141;SDS011;42018;48.588;10.836;2022-08-18T00:37:19;5.38;;;3.70;;
56141;SDS011;42018;48.588;10.836;2022-08-18T00:40:06;4.63;;;3.60;;
56141;SDS011;42018;48.588;10.836;2022-08-18T00:42:56;4.50;;;3.58;;
56141;SDS011;42018;48.588;10.836;2022-08-18T00:45:44;5.07;;;3.80;;
56141;SDS011;42018;48.588;10.836;2022-08-18T00:48:30;4.53;;;3.42;;
56141;SDS011;42018;48.588;10.836;2022-08-18T00:51:22;4.72;;;3.60;;
56141;SDS011;42018;48.588;10.836;2022-08-18T00:54:24;5.22;;;3.70;;
56141;SDS011;42018;48.588;10.836;2022-08-18T00:57:14;5.05;;;3.90;;
56141;SDS011;42018;48.588;10.836;2022-08-18T01:00:04;4.88;;;3.70;;
56141;SDS011;42018;48.588;10.836;2022-08-18T01:02:57;5.68;;;3.70;;
56141;SDS011;42018;48.588;10.836;2022-08-18T01:05:59;5.50;;;3.90;;
56141;SDS011;42018;48.588;10.836;2022-08-18T01:08:50;5.03;;;3.63;;
56141;SDS011;42018;48.588;10.836;2022-08-18T01:11:35;4.93;;;3.30;;
56141;SDS011;42018;48.588;10.836;2022-08-18T01:14:22;5.40;;;3.80;;
56141;SDS011;42018;48.588;10.836;2022-08-18T01:17:08;4.30;;;3.35;;
56141;SDS011;42018;48.588;10.836;2022-08-18T01:20:14;5.03;;;3.65;;
56141;SDS011;42018;48.588;10.836;2022-08-18T01:23:23;4.75;;;3.30;;
56141;SDS011;42018;48.588;10.836;2022-08-18T01:26:10;4.82;;;3.50;;
56141;SDS011;42018;48.588;10.836;2022-08-18T01:29:02;5.05;;;3.67;;
56141;SDS011;42018;48.588;10.836;2022-08-18T01:31:51;4.40;;;3.20;;
56141;SDS011;42018;48.588;10.836;2022-08-18T01:34:40;4.60;;;3.45;;
56141;SDS011;42018;48.588;10.836;2022-08-18T01:37:25;4.72;;;3.22;;
56141;SDS011;42018;48.588;10.836;2022-08-18T01:40:13;5.53;;;3.70;;
56141;SDS011;42018;48.588;10.836;2022-08-18T01:42:59;5.35;;;3.55;;
56141;SDS011;42018;48.588;10.836;2022-08-18T01:45:47;5.22;;;3.38;;
56141;SDS011;42018;48.588;10.836;2022-08-18T01:48:34;5.28;;;3.45;;
56141;SDS011;42018;48.588;10.836;2022-08-18T01:51:21;5.63;;;3.40;;
56141;SDS011;42018;48.588;10.836;2022-08-18T01:54:10;4.22;;;2.88;;
56141;SDS011;42018;48.588;10.836;2022-08-18T01:56:57;4.70;;;3.50;;
56141;SDS011;42018;48.588;10.836;2022-08-18T01:59:43;4.93;;;3.47;;
56141;SDS011;42018;48.588;10.836;2022-08-18T02:02:29;4.72;;;3.30;;
56141;SDS011;42018;48.588;10.836;2022-08-18T02:05:19;4.60;;;3.20;;
56141;SDS011;42018;48.588;10.836;2022-08-18T02:08:26;4.45;;;3.25;;
56141;SDS011;42018;48.588;10.836;2022-08-18T02:11:12;4.03;;;2.70;;
56141;SDS011;42018;48.588;10.836;2022-08-18T02:13:58;4.60;;;3.30;;
56141;SDS011;42018;48.588;10.836;2022-08-18T02:16:43;3.85;;;2.50;;
56141;SDS011;42018;48.588;10.836;2022-08-18T02:19:36;4.35;;;2.65;;
56141;SDS011;42018;48.588;10.836;2022-08-18T02:22:27;5.90;;;3.20;;
56141;SDS011;42018;48.588;10.836;2022-08-18T02:25:13;4.07;;;3.10;;
56141;SDS011;42018;48.588;10.836;2022-08-18T02:27:59;5.90;;;3.45;;
56141;SDS011;42018;48.588;10.836;2022-08-18T02:30:45;4.55;;;3.10;;
56141;SDS011;42018;48.588;10.836;2022-08-18T02:33:30;6.05;;;3.22;;
56141;SDS011;42018;48.588;10.836;2022-08-18T02:36:15;4.53;;;3.33;;
56141;SDS011;42018;48.588;10.836;2022-08-18T02:39:01;5.82;;;3.28;;
56141;SDS011;42018;48.588;10.836;2022-08-18T02:41:47;4.50;;;3.42;;
56141;SDS011;42018;48.588;10.836;2022-08-18T02:44:33;4.80;;;3.42;;
56141;SDS011;42018;48.588;10.836;2022-08-18T02:47:20;4.70;;;3.90;;
56141;SDS011;42018;48.588;10.836;2022-08-18T02:50:06;4.78;;;3.10;;
56141;SDS011;42018;48.588;10.836;2022-08-18T02:52:51;4.57;;;3.20;;
56141;SDS011;42018;48.588;10.836;2022-08-18T02:55:38;4.95;;;3.38;;
56141;SDS011;42018;48.588;10.836;2022-08-18T02:58:23;4.63;;;3.00;;
56141;SDS011;42018;48.588;10.836;2022-08-18T03:01:09;4.60;;;3.15;;
56141;SDS011;42018;48.588;10.836;2022-08-18T03:03:55;4.82;;;3.30;;
56141;SDS011;42018;48.588;10.836;2022-08-18T03:06:42;4.72;;;3.50;;
56141;SDS011;42018;48.588;10.836;2022-08-18T03:09:28;5.07;;;3.90;;
56141;SDS011;42018;48.588;10.836;2022-08-18T03:12:14;4.78;;;3.97;;
56141;SDS011;42018;48.588;10.836;2022-08-18T03:14:59;4.68;;;3.55;;
56141;SDS011;42018;48.588;10.836;2022-08-18T03:17:46;4.70;;;3.95;;
56141;SDS011;42018;48.588;10.836;2022-08-18T03:20:31;5.25;;;3.95;;
56141;SDS011;42018;48.588;10.836;2022-08-18T03:23:17;5.18;;;4.20;;
56141;SDS011;42018;48.588;10.836;2022-08-18T03:26:03;5.55;;;4.40;;
56141;SDS011;42018;48.588;10.836;2022-08-18T03:28:50;4.82;;;3.67;;
56141;SDS011;42018;48.588;10.836;2022-08-18T03:31:37;5.90;;;3.92;;
56141;SDS011;42018;48.588;10.836;2022-08-18T03:34:23;4.70;;;3.80;;
56141;SDS011;42018;48.588;10.836;2022-08-18T03:37:08;5.38;;;4.05;;
56141;SDS011;42018;48.588;10.836;2022-08-18T03:39:54;5.00;;;3.97;;
56141;SDS011;42018;48.588;10.836;2022-08-18T03:42:39;5.55;;;4.57;;
56141;SDS011;42018;48.588;10.836;2022-08-18T03:45:25;4.72;;;3.83;;
56141;SDS011;42018;48.588;10.836;2022-08-18T03:48:12;4.55;;;3.58;;
56141;SDS011;42018;48.588;10.836;2022-08-18T03:51:01;5.57;;;4.18;;
56141;SDS011;42018;48.588;10.836;2022-08-18T03:53:48;4.53;;;3.95;;
56141;SDS011;42018;48.588;10.836;2022-08-18T03:56:35;4.38;;;3.30;;
56141;SDS011;42018;48.588;10.836;2022-08-18T03:59:23;4.65;;;3.60;;
56141;SDS011;42018;48.588;10.836;2022-08-18T04:02:10;4.45;;;3.70;;
56141;SDS011;42018;48.588;10.836;2022-08-18T04:04:55;5.00;;;3.70;;
56141;SDS011;42018;48.588;10.836;2022-08-18T04:07:41;4.50;;;3.55;;
56141;SDS011;42018;48.588;10.836;2022-08-18T04:10:26;5.18;;;3.97;;
56141;SDS011;42018;48.588;10.836;2022-08-18T04:13:12;4.55;;;3.53;;
56141;SDS011;42018;48.588;10.836;2022-08-18T04:15:58;5.18;;;3.92;;
56141;SDS011;42018;48.588;10.836;2022-08-18T04:18:44;5.25;;;4.20;;
56141;SDS011;42018;48.588;10.836;2022-08-18T04:21:30;5.00;;;4.00;;
56141;SDS011;42018;48.588;10.836;2022-08-18T04:24:18;4.97;;;3.83;;
56141;SDS011;42018;48.588;10.836;2022-08-18T04:27:04;5.15;;;4.30;;
56141;SDS011;42018;48.588;10.836;2022-08-18T04:29:49;6.30;;;5.70;;
56141;SDS011;42018;48.588;10.836;2022-08-18T04:32:35;6.63;;;6.03;;
56141;SDS011;42018;48.588;10.836;2022-08-18T04:35:20;7.70;;;7.00;;
56141;SDS011;42018;48.588;10.836;2022-08-18T04:38:07;7.95;;;7.05;;
56141;SDS011;42018;48.588;10.836;2022-08-18T04:40:53;8.07;;;7.38;;
56141;SDS011;42018;48.588;10.836;2022-08-18T04:43:39;6.93;;;6.28;;
56141;SDS011;42018;48.588;10.836;2022-08-18T04:46:26;6.50;;;5.90;;
56141;SDS011;42018;48.588;10.836;2022-08-18T04:49:12;7.43;;;6.72;;
56141;SDS011;42018;48.588;10.836;2022-08-18T04:51:58;7.75;;;6.95;;
56141;SDS011;42018;48.588;10.836;2022-08-18T04:55:02;6.57;;;5.88;;
56141;SDS011;42018;48.588;10.836;2022-08-18T04:57:48;7.80;;;7.00;;
56141;SDS011;42018;48.588;10.836;2022-08-18T05:00:34;7.10;;;6.40;;
56141;SDS011;42018;48.588;10.836;2022-08-18T05:03:19;7.03;;;6.43;;
56141;SDS011;42018;48.588;10.836;2022-08-18T05:06:05;7.80;;;7.10;;
56141;SDS011;42018;48.588;10.836;2022-08-18T05:08:52;7.05;;;6.45;;
56141;SDS011;42018;48.588;10.836;2022-08-18T05:11:40;7.50;;;6.80;;
56141;SDS011;42018;48.588;10.836;2022-08-18T05:14:28;7.50;;;6.85;;
56141;SDS011;42018;48.588;10.836;2022-08-18T05:17:14;6.40;;;5.80;;
56141;SDS011;42018;48.588;10.836;2022-08-18T05:20:00;6.50;;;5.90;;
56141;SDS011;42018;48.588;10.836;2022-08-18T05:22:47;6.25;;;5.65;;
56141;SDS011;42018;48.588;10.836;2022-08-18T05:25:33;6.30;;;5.70;;
56141;SDS011;42018;48.588;10.836;2022-08-18T05:28:18;6.80;;;5.43;;
56141;SDS011;42018;48.588;10.836;2022-08-18T05:33:53;6.25;;;5.65;;
56141;SDS011;42018;48.588;10.836;2022-08-18T05:36:50;5.70;;;5.20;;
56141;SDS011;42018;48.588;10.836;2022-08-18T05:42:38;4.93;;;4.28;;
56141;SDS011;42018;48.588;10.836;2022-08-18T05:45:24;5.90;;;5.18;;
56141;SDS011;42018;48.588;10.836;2022-08-18T05:48:10;5.82;;;4.60;;
56141;SDS011;42018;48.588;10.836;2022-08-18T05:50:58;5.50;;;4.47;;
56141;SDS011;42018;48.588;10.836;2022-08-18T05:53:47;5.10;;;4.28;;
56141;SDS011;42018;48.588;10.836;2022-08-18T05:56:52;6.20;;;4.57;;
56141;SDS011;42018;48.588;10.836;2022-08-18T05:59:40;5.43;;;4.67;;
56141;SDS011;42018;48.588;10.836;2022-08-18T06:05:24;5.32;;;4.80;;
56141;SDS011;42018;48.588;10.836;2022-08-18T06:08:19;5.50;;;4.38;;
56141;SDS011;42018;48.588;10.836;2022-08-18T06:11:09;5.80;;;5.20;;
56141;SDS011;42018;48.588;10.836;2022-08-18T06:13:55;5.68;;;5.07;;
56141;SDS011;42018;48.588;10.836;2022-08-18T06:31:37;6.13;;;5.53;;
56141;SDS011;42018;48.588;10.836;2022-08-18T06:41:01;5.90;;;5.30;;
56141;SDS011;42018;48.588;10.836;2022-08-18T06:44:08;6.43;;;5.65;;
56141;SDS011;42018;48.588;10.836;2022-08-18T06:50:06;6.47;;;5.88;;
56141;SDS011;42018;48.588;10.836;2022-08-18T06:53:03;6.78;;;6.18;;
56141;SDS011;42018;48.588;10.836;2022-08-18T06:55:50;6.10;;;5.50;;
56141;SDS011;42018;48.588;10.836;2022-08-18T06:58:35;6.60;;;6.00;;
56141;SDS011;42018;48.588;10.836;2022-08-18T07:01:21;7.07;;;6.38;;
56141;SDS011;42018;48.588;10.836;2022-08-18T07:04:08;6.65;;;6.05;;
56141;SDS011;42018;48.588;10.836;2022-08-18T07:06:54;7.13;;;6.47;;
56141;SDS011;42018;48.588;10.836;2022-08-18T07:09:39;6.05;;;5.50;;
56141;SDS011;42018;48.588;10.836;2022-08-18T07:12:26;6.47;;;5.88;;
56141;SDS011;42018;48.588;10.836;2022-08-18T07:15:13;6.47;;;5.88;;
56141;SDS011;42018;48.588;10.836;2022-08-18T07:18:08;5.68;;;5.15;;
56141;SDS011;42018;48.588;10.836;2022-08-18T07:20:55;6.45;;;5.85;;
56141;SDS011;42018;48.588;10.836;2022-08-18T07:23:43;8.00;;;7.15;;
56141;SDS011;42018;48.588;10.836;2022-08-18T07:30:26;6.80;;;6.20;;
56141;SDS011;42018;48.588;10.836;2022-08-18T07:36:06;6.97;;;6.38;;
56141;SDS011;42018;48.588;10.836;2022-08-18T07:38:55;6.63;;;6.00;;
56141;SDS011;42018;48.588;10.836;2022-08-18T07:41:51;6.28;;;5.68;;
56141;SDS011;42018;48.588;10.836;2022-08-18T07:44:49;7.75;;;7.05;;
56141;SDS011;42018;48.588;10.836;2022-08-18T07:54:02;6.20;;;5.60;;
56141;SDS011;42018;48.588;10.836;2022-08-18T07:57:09;6.47;;;5.88;;
56141;SDS011;42018;48.588;10.836;2022-08-18T08:00:23;6.72;;;5.97;;
56141;SDS011;42018;48.588;10.836;2022-08-18T08:12:16;7.45;;;6.55;;
56141;SDS011;42018;48.588;10.836;2022-08-18T08:18:00;7.28;;;6.57;;
56141;SDS011;42018;48.588;10.836;2022-08-18T08:27:12;6.40;;;5.80;;
56141;SDS011;42018;48.588;10.836;2022-08-18T08:30:20;6.22;;;5.43;;
56141;SDS011;42018;48.588;10.836;2022-08-18T08:33:16;7.50;;;6.70;;
56141;SDS011;42018;48.588;10.836;2022-08-18T08:39:58;7.30;;;6.60;;
56141;SDS011;42018;48.588;10.836;2022-08-18T08:45:29;6.85;;;6.13;;
56141;SDS011;42018;48.588;10.836;2022-08-18T08:48:20;6.63;;;6.03;;
56141;SDS011;42018;48.588;10.836;2022-08-18T08:51:26;6.95;;;6.25;;
56141;SDS011;42018;48.588;10.836;2022-08-18T08:54:19;6.40;;;5.80;;
56141;SDS011;42018;48.588;10.836;2022-08-18T08:57:25;6.32;;;5.72;;
56141;SDS011;42018;48.588;10.836;2022-08-18T09:00:18;6.95;;;5.50;;
56141;SDS011;42018;48.588;10.836;2022-08-18T09:08:54;6.38;;;5.00;;
56141;SDS011;42018;48.588;10.836;2022-08-18T09:12:14;6.00;;;5.40;;
56141;SDS011;42018;48.588;10.836;2022-08-18T09:15:09;5.30;;;4.80;;
56141;SDS011;42018;48.588;10.836;2022-08-18T09:18:02;5.90;;;5.30;;
56141;SDS011;42018;48.588;10.836;2022-08-18T09:24:07;6.00;;;5.40;;
56141;SDS011;42018;48.588;10.836;2022-08-18T09:33:30;4.80;;;4.22;;
56141;SDS011;42018;48.588;10.836;2022-08-18T09:39:37;5.63;;;4.60;;
56141;SDS011;42018;48.588;10.836;2022-08-18T09:46:02;5.00;;;4.28;;
56141;SDS011;42018;48.588;10.836;2022-08-18T09:48:49;5.45;;;4.63;;
56141;SDS011;42018;48.588;10.836;2022-08-18T09:58:13;6.60;;;4.70;;
56141;SDS011;42018;48.588;10.836;2022-08-18T10:01:18;5.32;;;4.47;;
56141;SDS011;42018;48.588;10.836;2022-08-18T10:07:21;4.55;;;3.70;;
56141;SDS011;42018;48.588;10.836;2022-08-18T10:10:36;4.55;;;4.00;;
56141;SDS011;42018;48.588;10.836;2022-08-18T10:22:46;4.80;;;4.30;;
56141;SDS011;42018;48.588;10.836;2022-08-18T10:25:38;5.15;;;4.00;;
56141;SDS011;42018;48.588;10.836;2022-08-18T10:37:42;4.82;;;3.70;;
56141;SDS011;42018;48.588;10.836;2022-08-18T10:40:32;5.70;;;3.55;;
56141;SDS011;42018;48.588;10.836;2022-08-18T10:46:27;4.25;;;2.90;;
56141;SDS011;42018;48.588;10.836;2022-08-18T10:49:20;5.07;;;3.20;;
56141;SDS011;42018;48.588;10.836;2022-08-18T11:04:30;4.65;;;3.20;;
56141;SDS011;42018;48.588;10.836;2022-08-18T11:07:24;4.20;;;3.25;;
56141;SDS011;42018;48.588;10.836;2022-08-18T11:10:33;4.82;;;3.47;;
56141;SDS011;42018;48.588;10.836;2022-08-18T11:20:07;4.85;;;2.90;;
56141;SDS011;42018;48.588;10.836;2022-08-18T11:22:57;4.50;;;3.38;;
56141;SDS011;42018;48.588;10.836;2022-08-18T11:25:46;4.63;;;3.10;;
56141;SDS011;42018;48.588;10.836;2022-08-18T11:28:31;4.78;;;3.30;;
56141;SDS011;42018;48.588;10.836;2022-08-18T11:31:16;4.53;;;3.50;;
56141;SDS011;42018;48.588;10.836;2022-08-18T11:34:02;4.93;;;3.08;;
56141;SDS011;42018;48.588;10.836;2022-08-18T11:36:57;4.65;;;3.40;;
56141;SDS011;42018;48.588;10.836;2022-08-18T11:39:46;5.03;;;3.60;;
56141;SDS011;42018;48.588;10.836;2022-08-18T11:45:24;4.75;;;3.30;;
56141;SDS011;42018;48.588;10.836;2022-08-18T11:53:54;4.70;;;3.20;;
56141;SDS011;42018;48.588;10.836;2022-08-18T11:56:45;5.38;;;2.97;;
56141;SDS011;42018;48.588;10.836;2022-08-18T11:59:30;4.88;;;2.70;;
56141;SDS011;42018;48.588;10.836;2022-08-18T12:02:17;5.95;;;3.13;;
56141;SDS011;42018;48.588;10.836;2022-08-18T12:05:04;4.40;;;3.00;;
56141;SDS011;42018;48.588;10.836;2022-08-18T12:07:50;4.30;;;3.22;;
56141;SDS011;42018;48.588;10.836;2022-08-18T12:10:35;4.45;;;3.40;;
56141;SDS011;42018;48.588;10.836;2022-08-18T12:13:22;4.75;;;3.40;;
56141;SDS011;42018;48.588;10.836;2022-08-18T12:16:13;4.22;;;2.55;;
56141;SDS011;42018;48.588;10.836;2022-08-18T12:19:01;7.50;;;3.10;;
56141;SDS011;42018;48.588;10.836;2022-08-18T12:21:50;4.07;;;2.20;;
56141;SDS011;42018;48.588;10.836;2022-08-18T12:24:40;3.63;;;2.58;;
56141;SDS011;42018;48.588;10.836;2022-08-18T12:27:26;4.40;;;3.00;;
56141;SDS011;42018;48.588;10.836;2022-08-18T12:30:13;4.25;;;2.42;;
56141;SDS011;42018;48.588;10.836;2022-08-18T12:32:58;4.65;;;2.40;;
56141;SDS011;42018;48.588;10.836;2022-08-18T12:35:44;4.25;;;2.55;;
56141;SDS011;42018;48.588;10.836;2022-08-18T12:38:32;3.95;;;2.92;;
56141;SDS011;42018;48.588;10.836;2022-08-18T12:41:19;3.88;;;2.30;;
56141;SDS011;42018;48.588;10.836;2022-08-18T12:49:14;4.63;;;2.70;;
56141;SDS011;42018;48.588;10.836;2022-08-18T12:52:01;4.00;;;2.50;;
56141;SDS011;42018;48.588;10.836;2022-08-18T12:54:47;4.38;;;2.53;;
56141;SDS011;42018;48.588;10.836;2022-08-18T12:57:33;4.00;;;2.40;;
56141;SDS011;42018;48.588;10.836;2022-08-18T13:00:19;4.35;;;2.50;;
56141;SDS011;42018;48.588;10.836;2022-08-18T13:03:05;3.67;;;2.15;;
56141;SDS011;42018;48.588;10.836;2022-08-18T13:05:51;4.00;;;2.40;;
56141;SDS011;42018;48.588;10.836;2022-08-18T13:08:37;3.85;;;2.30;;
56141;SDS011;42018;48.588;10.836;2022-08-18T13:11:23;3.63;;;2.00;;
56141;SDS011;42018;48.588;10.836;2022-08-18T13:14:08;3.97;;;2.22;;
56141;SDS011;42018;48.588;10.836;2022-08-18T13:16:54;3.72;;;2.08;;
56141;SDS011;42018;48.588;10.836;2022-08-18T13:19:43;3.72;;;2.30;;
56141;SDS011;42018;48.588;10.836;2022-08-18T13:22:32;4.55;;;2.10;;
56141;SDS011;42018;48.588;10.836;2022-08-18T13:25:18;4.40;;;2.30;;
56141;SDS011;42018;48.588;10.836;2022-08-18T13:28:03;4.45;;;2.30;;
56141;SDS011;42018;48.588;10.836;2022-08-18T13:30:49;4.40;;;2.25;;
56141;SDS011;42018;48.588;10.836;2022-08-18T13:33:39;4.22;;;2.30;;
56141;SDS011;42018;48.588;10.836;2022-08-18T13:36:27;5.00;;;2.30;;
56141;SDS011;42018;48.588;10.836;2022-08-18T13:39:28;3.65;;;2.22;;
56141;SDS011;42018;48.588;10.836;2022-08-18T13:42:13;2.95;;;1.80;;
56141;SDS011;42018;48.588;10.836;2022-08-18T13:44:59;4.43;;;2.17;;
56141;SDS011;42018;48.588;10.836;2022-08-18T13:47:45;4.93;;;2.33;;
56141;SDS011;42018;48.588;10.836;2022-08-18T13:50:31;4.20;;;2.10;;
56141;SDS011;42018;48.588;10.836;2022-08-18T13:53:17;3.10;;;1.85;;
56141;SDS011;42018;48.588;10.836;2022-08-18T13:56:04;3.72;;;2.10;;
56141;SDS011;42018;48.588;10.836;2022-08-18T13:58:50;3.55;;;2.13;;
56141;SDS011;42018;48.588;10.836;2022-08-18T14:01:40;5.18;;;2.05;;
56141;SDS011;42018;48.588;10.836;2022-08-18T14:04:30;4.28;;;2.03;;
56141;SDS011;42018;48.588;10.836;2022-08-18T14:07:16;3.88;;;1.90;;
56141;SDS011;42018;48.588;10.836;2022-08-18T14:10:04;3.75;;;1.90;;
56141;SDS011;42018;48.588;10.836;2022-08-18T14:12:59;4.28;;;2.17;;
56141;SDS011;42018;48.588;10.836;2022-08-18T14:15:45;3.35;;;2.10;;
56141;SDS011;42018;48.588;10.836;2022-08-18T14:18:33;3.58;;;2.05;;
56141;SDS011;42018;48.588;10.836;2022-08-18T14:21:19;3.65;;;2.00;;
56141;SDS011;42018;48.588;10.836;2022-08-18T14:24:34;3.40;;;1.90;;
56141;SDS011;42018;48.588;10.836;2022-08-18T14:27:44;3.40;;;2.00;;
56141;SDS011;42018;48.588;10.836;2022-08-18T14:30:29;3.40;;;1.95;;
56141;SDS011;42018;48.588;10.836;2022-08-18T14:33:19;3.67;;;2.15;;
56141;SDS011;42018;48.588;10.836;2022-08-18T14:36:06;4.20;;;1.73;;
56141;SDS011;42018;48.588;10.836;2022-08-18T14:38:55;3.45;;;2.10;;
56141;SDS011;42018;48.588;10.836;2022-08-18T14:41:56;4.35;;;2.10;;
56141;SDS011;42018;48.588;10.836;2022-08-18T14:44:47;3.60;;;1.95;;
56141;SDS011;42018;48.588;10.836;2022-08-18T14:47:46;3.40;;;1.95;;
56141;SDS011;42018;48.588;10.836;2022-08-18T14:50:34;3.40;;;2.00;;
56141;SDS011;42018;48.588;10.836;2022-08-18T14:53:25;3.20;;;1.90;;
56141;SDS011;42018;48.588;10.836;2022-08-18T14:56:21;4.07;;;2.30;;
56141;SDS011;42018;48.588;10.836;2022-08-18T14:59:09;3.67;;;2.17;;
56141;SDS011;42018;48.588;10.836;2022-08-18T15:01:55;3.53;;;2.15;;
56141;SDS011;42018;48.588;10.836;2022-08-18T15:04:42;4.47;;;2.50;;
56141;SDS011;42018;48.588;10.836;2022-08-18T15:07:28;3.70;;;2.10;;
56141;SDS011;42018;48.588;10.836;2022-08-18T15:10:14;3.80;;;2.20;;
56141;SDS011;42018;48.588;10.836;2022-08-18T15:13:01;4.22;;;2.13;;
56141;SDS011;42018;48.588;10.836;2022-08-18T15:15:46;3.90;;;2.30;;
56141;SDS011;42018;48.588;10.836;2022-08-18T15:18:32;3.83;;;2.47;;
56141;SDS011;42018;48.588;10.836;2022-08-18T15:21:20;4.53;;;2.25;;
56141;SDS011;42018;48.588;10.836;2022-08-18T15:24:24;4.55;;;2.55;;
56141;SDS011;42018;48.588;10.836;2022-08-18T15:27:34;3.80;;;2.45;;
56141;SDS011;42018;48.588;10.836;2022-08-18T15:30:24;4.63;;;2.88;;
56141;SDS011;42018;48.588;10.836;2022-08-18T15:33:10;4.40;;;2.70;;
56141;SDS011;42018;48.588;10.836;2022-08-18T15:36:01;4.63;;;2.83;;
56141;SDS011;42018;48.588;10.836;2022-08-18T15:38:48;3.90;;;2.60;;
56141;SDS011;42018;48.588;10.836;2022-08-18T15:41:36;3.75;;;2.65;;
56141;SDS011;42018;48.588;10.836;2022-08-18T15:44:23;3.70;;;2.58;;
56141;SDS011;42018;48.588;10.836;2022-08-18T15:47:09;4.18;;;2.47;;
56141;SDS011;42018;48.588;10.836;2022-08-18T15:49:55;6.35;;;3.00;;
56141;SDS011;42018;48.588;10.836;2022-08-18T15:52:50;4.40;;;2.60;;
56141;SDS011;42018;48.588;10.836;2022-08-18T15:55:43;4.85;;;2.80;;
56141;SDS011;42018;48.588;10.836;2022-08-18T15:58:29;4.55;;;2.60;;
56141;SDS011;42018;48.588;10.836;2022-08-18T16:01:15;4.47;;;2.85;;
56141;SDS011;42018;48.588;10.836;2022-08-18T16:04:05;4.97;;;2.65;;
56141;SDS011;42018;48.588;10.836;2022-08-18T16:06:52;4.40;;;2.85;;
56141;SDS011;42018;48.588;10.836;2022-08-18T16:09:39;4.30;;;3.00;;
56141;SDS011;42018;48.588;10.836;2022-08-18T16:12:24;4.63;;;2.40;;
56141;SDS011;42018;48.588;10.836;2022-08-18T16:15:09;4.32;;;3.10;;
56141;SDS011;42018;48.588;10.836;2022-08-18T16:17:55;4.25;;;3.00;;
56141;SDS011;42018;48.588;10.836;2022-08-18T16:20:41;4.47;;;2.90;;
56141;SDS011;42018;48.588;10.836;2022-08-18T16:23:27;4.32;;;3.22;;
56141;SDS011;42018;48.588;10.836;2022-08-18T16:26:13;3.92;;;2.78;;
56141;SDS011;42018;48.588;10.836;2022-08-18T16:29:01;4.00;;;2.80;;
56141;SDS011;42018;48.588;10.836;2022-08-18T16:31:46;5.28;;;2.83;;
56141;SDS011;42018;48.588;10.836;2022-08-18T16:34:32;4.22;;;2.80;;
56141;SDS011;42018;48.588;10.836;2022-08-18T16:37:18;4.18;;;2.75;;
56141;SDS011;42018;48.588;10.836;2022-08-18T16:40:04;8.15;;;3.00;;
56141;SDS011;42018;48.588;10.836;2022-08-18T16:42:52;7.07;;;3.00;;
56141;SDS011;42018;48.588;10.836;2022-08-18T16:45:39;3.80;;;2.40;;
56141;SDS011;42018;48.588;10.836;2022-08-18T16:48:27;4.53;;;2.60;;
56141;SDS011;42018;48.588;10.836;2022-08-18T16:51:14;5.13;;;2.80;;
56141;SDS011;42018;48.588;10.836;2022-08-18T16:54:01;4.15;;;2.60;;
56141;SDS011;42018;48.588;10.836;2022-08-18T16:56:47;4.95;;;2.88;;
56141;SDS011;42018;48.588;10.836;2022-08-18T16:59:33;4.85;;;2.65;;
56141;SDS011;42018;48.588;10.836;2022-08-18T17:02:37;5.40;;;2.55;;
56141;SDS011;42018;48.588;10.836;2022-08-18T17:05:40;4.55;;;2.80;;
56141;SDS011;42018;48.588;10.836;2022-08-18T17:08:26;4.10;;;2.70;;
56141;SDS011;42018;48.588;10.836;2022-08-18T17:11:13;5.18;;;2.70;;
56141;SDS011;42018;48.588;10.836;2022-08-18T17:14:00;4.60;;;2.80;;
56141;SDS011;42018;48.588;10.836;2022-08-18T17:16:47;4.50;;;2.85;;
56141;SDS011;42018;48.588;10.836;2022-08-18T17:19:34;4.32;;;2.70;;
56141;SDS011;42018;48.588;10.836;2022-08-18T17:22:21;4.60;;;2.70;;
56141;SDS011;42018;48.588;10.836;2022-08-18T17:25:07;4.90;;;2.70;;
56141;SDS011;42018;48.588;10.836;2022-08-18T17:28:00;5.22;;;3.08;;
56141;SDS011;42018;48.588;10.836;2022-08-18T17:30:47;4.43;;;2.88;;
56141;SDS011;42018;48.588;10.836;2022-08-18T17:33:36;4.38;;;2.90;;
56141;SDS011;42018;48.588;10.836;2022-08-18T17:36:29;6.10;;;3.30;;
56141;SDS011;42018;48.588;10.836;2022-08-18T17:39:23;4.95;;;2.97;;
56141;SDS011;42018;48.588;10.836;2022-08-18T17:42:12;5.47;;;3.20;;
56141;SDS011;42018;48.588;10.836;2022-08-18T17:45:10;4.30;;;3.15;;
56141;SDS011;42018;48.588;10.836;2022-08-18T17:48:15;4.30;;;3.08;;
56141;SDS011;42018;48.588;10.836;2022-08-18T17:51:10;4.40;;;3.25;;
56141;SDS011;42018;48.588;10.836;2022-08-18T17:57:25;7.43;;;3.88;;
56141;SDS011;42018;48.588;10.836;2022-08-18T18:00:15;4.80;;;3.70;;
56141;SDS011;42018;48.588;10.836;2022-08-18T18:03:02;4.90;;;3.80;;
56141;SDS011;42018;48.588;10.836;2022-08-18T18:05:53;5.40;;;3.70;;
56141;SDS011;42018;48.588;10.836;2022-08-18T18:11:42;5.95;;;3.83;;
56141;SDS011;42018;48.588;10.836;2022-08-18T18:14:35;8.18;;;4.35;;
56141;SDS011;42018;48.588;10.836;2022-08-18T18:17:25;5.43;;;4.18;;
56141;SDS011;42018;48.588;10.836;2022-08-18T18:23:24;5.10;;;4.22;;
56141;SDS011;42018;48.588;10.836;2022-08-18T18:29:20;4.97;;;3.80;;
56141;SDS011;42018;48.588;10.836;2022-08-18T18:38:03;5.93;;;3.70;;
56141;SDS011;42018;48.588;10.836;2022-08-18T18:44:05;4.63;;;3.47;;
56141;SDS011;42018;48.588;10.836;2022-08-18T18:47:00;4.72;;;3.60;;
56141;SDS011;42018;48.588;10.836;2022-08-18T18:49:55;5.30;;;3.60;;
56141;SDS011;42018;48.588;10.836;2022-08-18T18:52:56;4.82;;;3.47;;
56141;SDS011;42018;48.588;10.836;2022-08-18T18:55:50;5.13;;;4.10;;
56141;SDS011;42018;48.588;10.836;2022-08-18T19:05:19;7.03;;;3.90;;
56141;SDS011;42018;48.588;10.836;2022-08-18T19:11:17;5.05;;;3.92;;
56141;SDS011;42018;48.588;10.836;2022-08-18T19:14:27;4.65;;;3.88;;
56141;SDS011;42018;48.588;10.836;2022-08-18T19:17:27;5.05;;;3.97;;
56141;SDS011;42018;48.588;10.836;2022-08-18T19:20:26;5.15;;;4.60;;
56141;SDS011;42018;48.588;10.836;2022-08-18T19:23:24;5.13;;;4.20;;
56141;SDS011;42018;48.588;10.836;2022-08-18T19:26:17;4.75;;;4.10;;
56141;SDS011;42018;48.588;10.836;2022-08-18T19:29:13;5.57;;;4.15;;
56141;SDS011;42018;48.588;10.836;2022-08-18T19:32:48;5.18;;;4.30;;
56141;SDS011;42018;48.588;10.836;2022-08-18T19:35:47;5.70;;;4.10;;
56141;SDS011;42018;48.588;10.836;2022-08-18T20:14:41;4.70;;;4.20;;
56141;SDS011;42018;48.588;10.836;2022-08-18T20:20:44;5.43;;;4.38;;
56141;SDS011;42018;48.588;10.836;2022-08-18T20:26:43;5.88;;;4.28;;
56141;SDS011;42018;48.588;10.836;2022-08-18T20:32:18;5.45;;;4.85;;
56141;SDS011;42018;48.588;10.836;2022-08-18T20:35:26;5.20;;;4.70;;
56141;SDS011;42018;48.588;10.836;2022-08-18T20:38:20;5.15;;;4.65;;
56141;SDS011;42018;48.588;10.836;2022-08-18T20:53:17;5.68;;;5.00;;